Time;durP1;ratioP1;P1;durP2;ratioP2;P2;SDS_P1;SDS_P2;PMS_P1;PMS_P2;Temp;Humidity;BMP_temperature;BMP_pressure;BME280_temperature;BME280_humidity;BME280_pressure;Samples;Min_cycle;Max_cycle;Signal;HPM_P1;HPM_P2
2022/06/02 00:01:34;;;;;;;3.1;2.8;;;;;;;14.95;94.53418;938.9575;;;;
2022/06/02 00:04:04;;;;;;;3.9;2.7;;;;;;;14.95;95.03906;938.9383;;;;
2022/06/02 00:06:43;;;;;;;2.9;2.6;;;;;;;14.93;94.50684;938.981;;;;
2022/06/02 00:09:03;;;;;;;3.6;3;;;;;;;14.91;94.79102;939.1582;;;;
2022/06/02 00:11:32;;;;;;;2.9;2.6;;;;;;;14.75;94.39844;939.1011;;;;
2022/06/02 00:14:01;;;;;;;3.3;3;;;;;;;14.74;94.29102;939.0723;;;;
2022/06/02 00:16:26;;;;;;;3.6;2.6;;;;;;;14.72;95.62402;939.1542;;;;
2022/06/02 00:18:51;;;;;;;2.9;2.6;;;;;;;14.81;95.53125;939.1536;;;;
2022/06/02 00:21:16;;;;;;;3.3;3;;;;;;;14.87;95.78711;939.1424;;;;
2022/06/02 00:23:42;;;;;;;3.1;2.8;;;;;;;14.93;96.04102;939.1509;;;;
2022/06/02 00:26:07;;;;;;;3.2;2.9;;;;;;;14.92;95.99121;939.1919;;;;
2022/06/02 00:28:33;;;;;;;3.2;2.9;;;;;;;14.9;95.93164;939.1358;;;;
2022/06/02 00:31:02;;;;;;;3.1;2.7;;;;;;;14.88;95.24707;939.0622;;;;
2022/06/02 00:36:06;;;;;;;3.4;3.1;;;;;;;14.87;94.95605;939.0927;;;;
2022/06/02 00:38:34;;;;;;;3.3;3;;;;;;;14.86;95.26367;939.0183;;;;
2022/06/02 00:40:59;;;;;;;3.5;3.2;;;;;;;14.84;94.30273;939.1153;;;;
2022/06/02 00:43:25;;;;;;;3.4;2.8;;;;;;;14.82;93.93945;939.2164;;;;
2022/06/02 00:45:50;;;;;;;3.7;2.9;;;;;;;14.79;94.59082;939.2219;;;;
2022/06/02 00:48:15;;;;;;;3.2;2.9;;;;;;;14.68;95.72266;939.2553;;;;
2022/06/02 00:50:40;;;;;;;3.6;3.1;;;;;;;14.64;96.48438;939.2916;;;;
2022/06/02 00:53:05;;;;;;;5.1;3.2;;;;;;;14.7;96.64648;939.3354;;;;
2022/06/02 00:57:56;;;;;;;3;2.7;;;;;;;14.63;96.59766;939.448;;;;
2022/06/02 01:00:21;;;;;;;4.2;2.9;;;;;;;14.71;96.41992;939.4604;;;;
2022/06/02 01:02:50;;;;;;;3;2.8;;;;;;;14.68;96.83789;939.4861;;;;
2022/06/02 01:05:21;;;;;;;3;2.7;;;;;;;14.72;96.07422;939.4892;;;;
2022/06/02 01:07:48;;;;;;;3.7;2.9;;;;;;;14.75;95.70117;939.5516;;;;
2022/06/02 01:10:18;;;;;;;3.4;2.9;;;;;;;14.76;95.49609;939.5403;;;;
2022/06/02 01:12:43;;;;;;;3.3;3;;;;;;;14.77;95.37109;939.6381;;;;
2022/06/02 01:15:08;;;;;;;3.6;3.3;;;;;;;14.83;95.12012;939.5764;;;;
2022/06/02 01:17:34;;;;;;;3.3;2.8;;;;;;;14.84;95.19043;939.5507;;;;
2022/06/02 01:19:59;;;;;;;4;3.1;;;;;;;14.87;95.11816;939.5369;;;;
2022/06/02 01:22:24;;;;;;;4.6;3.2;;;;;;;14.99;94.98242;939.5114;;;;
2022/06/02 01:26:29;;;;;;;3.1;2.8;;;;;;;14.87;95.32324;939.4767;;;;
2022/06/02 01:28:55;;;;;;;3.9;3.5;;;;;;;14.87;94.89844;939.3813;;;;
2022/06/02 01:31:21;;;;;;;3.2;2.9;;;;;;;14.84;94.61426;939.2612;;;;
2022/06/02 01:33:45;;;;;;;3.7;3;;;;;;;14.78;94.42969;939.2019;;;;
2022/06/02 01:36:15;;;;;;;3.3;3;;;;;;;14.74;94.41992;939.2166;;;;
2022/06/02 01:38:40;;;;;;;3.8;3.4;;;;;;;14.75;94.29492;939.2205;;;;
2022/06/02 01:41:08;;;;;;;3.6;3.3;;;;;;;14.74;94.40625;939.1973;;;;
2022/06/02 01:43:33;;;;;;;4.3;3.8;;;;;;;14.74;94.60449;939.243;;;;
2022/06/02 01:45:58;;;;;;;4.3;3.7;;;;;;;14.75;94.97559;939.2534;;;;
2022/06/02 01:48:23;;;;;;;4.6;4;;;;;;;14.74;95.19238;939.2238;;;;
2022/06/02 01:50:48;;;;;;;7.5;4.1;;;;;;;14.76;95.2998;939.117;;;;
2022/06/02 01:53:16;;;;;;;4.8;3.8;;;;;;;14.71;95.65918;939.1783;;;;
2022/06/02 01:55:41;;;;;;;3.7;3.4;;;;;;;14.6;96.75098;939.1472;;;;
2022/06/02 01:58:06;;;;;;;4.3;3.3;;;;;;;14.53;96.86426;939.1211;;;;
2022/06/02 02:00:31;;;;;;;3.5;3.2;;;;;;;14.54;96.66797;939.1379;;;;
2022/06/02 02:02:56;;;;;;;6.1;3.4;;;;;;;14.64;96.14844;939.1473;;;;
2022/06/02 02:05:22;;;;;;;3.8;3.4;;;;;;;14.64;95.66602;939.1378;;;;
2022/06/02 02:07:47;;;;;;;4.5;3.6;;;;;;;14.64;95.22852;939.1465;;;;
2022/06/02 02:10:17;;;;;;;6;3;;;;;;;14.57;95.43164;939.1707;;;;
2022/06/02 02:12:43;;;;;;;3.8;3.4;;;;;;;14.56;95.26855;939.1642;;;;
2022/06/02 02:15:15;;;;;;;3.7;2.8;;;;;;;14.55;95.39063;939.0064;;;;
2022/06/02 02:17:45;;;;;;;2.9;2.7;;;;;;;14.57;94.94727;938.9647;;;;
2022/06/02 02:20:14;;;;;;;3.5;3.2;;;;;;;14.67;94.77539;938.9083;;;;
2022/06/02 02:22:43;;;;;;;3.3;3;;;;;;;14.7;94.90723;938.9939;;;;
2022/06/02 02:25:14;;;;;;;3.8;2.6;;;;;;;14.65;95.3457;938.9918;;;;
2022/06/02 02:28:04;;;;;;;2.9;2.6;;;;;;;14.59;95.58496;938.9229;;;;
2022/06/02 02:30:18;;;;;;;2.9;2.6;;;;;;;14.63;95.26074;938.9318;;;;
2022/06/02 02:32:43;;;;;;;3.3;2.9;;;;;;;14.58;95.17969;938.9454;;;;
2022/06/02 02:35:08;;;;;;;3.2;2.9;;;;;;;14.54;95.5293;939.0217;;;;
2022/06/02 02:37:38;;;;;;;2.8;2.4;;;;;;;14.62;94.54395;939.1227;;;;
2022/06/02 02:40:10;;;;;;;3.4;2.8;;;;;;;14.56;95.22168;939.0905;;;;
2022/06/02 02:42:36;;;;;;;4;3.1;;;;;;;14.62;95.24707;938.9976;;;;
2022/06/02 02:45:01;;;;;;;2.8;2.6;;;;;;;14.57;95.1416;939.0385;;;;
2022/06/02 02:47:27;;;;;;;4.2;2.9;;;;;;;14.6;95.12598;939.1104;;;;
2022/06/02 02:49:52;;;;;;;2.9;2.7;;;;;;;14.64;94.77832;939.0151;;;;
2022/06/02 02:52:18;;;;;;;2.3;2.1;;;;;;;14.43;94.67578;939.0299;;;;
2022/06/02 02:54:43;;;;;;;2.8;2.1;;;;;;;14.46;95.25586;939.1135;;;;
2022/06/02 02:57:10;;;;;;;2.7;2.5;;;;;;;14.55;95.37012;939.1811;;;;
2022/06/02 03:00:35;;;;;;;2.8;2.6;;;;;;;14.56;95.93652;939.0785;;;;
2022/06/02 03:02:53;;;;;;;3.1;2.8;;;;;;;14.64;95.6543;939.0712;;;;
2022/06/02 03:05:19;;;;;;;3;2.8;;;;;;;14.66;95.69336;939.0438;;;;
2022/06/02 03:07:49;;;;;;;3.3;3;;;;;;;14.53;96.51855;939.0963;;;;
2022/06/02 03:10:17;;;;;;;3.2;2.9;;;;;;;14.54;96.86621;939.1114;;;;
2022/06/02 03:12:44;;;;;;;3.5;3.2;;;;;;;14.59;96.85254;939.2595;;;;
2022/06/02 03:15:36;;;;;;;4;3.7;;;;;;;14.47;96.58496;939.2776;;;;
2022/06/02 03:18:02;;;;;;;4.4;4;;;;;;;14.46;96.92676;939.0966;;;;
2022/06/02 03:20:27;;;;;;;4.3;3.7;;;;;;;14.5;96.34863;939.2542;;;;
2022/06/02 03:22:56;;;;;;;4.2;3.8;;;;;;;14.57;96.14355;939.3461;;;;
2022/06/02 03:25:25;;;;;;;5.2;3.9;;;;;;;14.64;96.70117;939.3005;;;;
2022/06/02 03:27:50;;;;;;;4.8;3.8;;;;;;;14.7;96.47559;939.3954;;;;
2022/06/02 03:30:18;;;;;;;7.1;4.2;;;;;;;14.71;96.43164;939.2696;;;;
2022/06/02 03:32:43;;;;;;;6.7;4.6;;;;;;;14.72;95.8916;939.2792;;;;
2022/06/02 03:35:19;;;;;;;5.5;4.6;;;;;;;14.73;95.85938;939.2775;;;;
2022/06/02 03:37:47;;;;;;;4.7;4.2;;;;;;;14.74;96.17188;939.2214;;;;
2022/06/02 03:40:19;;;;;;;4.2;3.8;;;;;;;14.82;96.01758;939.3503;;;;
2022/06/02 03:42:44;;;;;;;4.1;3.7;;;;;;;14.77;96.37402;939.3792;;;;
2022/06/02 03:45:18;;;;;;;5.3;4.6;;;;;;;14.75;96.27832;939.4169;;;;
2022/06/02 03:47:43;;;;;;;6.2;4.7;;;;;;;14.74;96.25098;939.3761;;;;
2022/06/02 03:50:13;;;;;;;4.7;4.3;;;;;;;14.8;96.37988;939.5602;;;;
2022/06/02 03:52:38;;;;;;;5;4.5;;;;;;;14.8;96.30176;939.3822;;;;
2022/06/02 03:55:03;;;;;;;3;2.7;;;;;;;14.78;95.09668;939.42;;;;
2022/06/02 03:57:31;;;;;;;4.8;2.8;;;;;;;14.87;94.28613;939.6291;;;;
2022/06/02 03:59:56;;;;;;;2.8;2.6;;;;;;;14.94;93.875;939.6487;;;;
2022/06/02 04:02:34;;;;;;;4.1;3;;;;;;;14.85;95.35449;939.6428;;;;
2022/06/02 04:05:01;;;;;;;3.7;3.4;;;;;;;14.85;95.13672;939.63;;;;
2022/06/02 04:07:31;;;;;;;2.8;2.5;;;;;;;14.87;94.72559;939.6908;;;;
2022/06/02 04:09:56;;;;;;;3.4;3.1;;;;;;;14.89;95.21191;939.6971;;;;
2022/06/02 04:14:53;;;;;;;3.1;2.6;;;;;;;14.82;93.75684;939.687;;;;
2022/06/02 04:17:18;;;;;;;3;2;;;;;;;14.43;93.67383;939.0927;;;;
2022/06/02 04:22:12;;;;;;;3.2;2.1;;;;;;;14.33;96.62207;939.5042;;;;
2022/06/02 04:24:37;;;;;;;2.4;2.2;;;;;;;14.27;97.79785;939.4275;;;;
2022/06/02 04:27:02;;;;;;;2.4;2;;;;;;;14.31;97.50684;939.421;;;;
2022/06/02 04:29:27;;;;;;;2.9;2.1;;;;;;;14.31;96.53711;939.4803;;;;
2022/06/02 04:31:55;;;;;;;2.7;2.3;;;;;;;14.35;96.61621;939.5242;;;;
2022/06/02 04:34:20;;;;;;;2.3;2.1;;;;;;;14.36;96.96387;939.4344;;;;
2022/06/02 04:36:45;;;;;;;3;2.4;;;;;;;14.52;96.66406;939.2333;;;;
2022/06/02 04:39:11;;;;;;;2.4;2.1;;;;;;;14.62;96.1582;939.3293;;;;
2022/06/02 04:41:37;;;;;;;4.5;2.5;;;;;;;14.67;95.74121;939.5511;;;;
2022/06/02 04:44:02;;;;;;;2.2;2;;;;;;;14.75;95.51855;939.5636;;;;
2022/06/02 04:46:27;;;;;;;2.3;2.1;;;;;;;14.86;95.54102;939.541;;;;
2022/06/02 04:48:53;;;;;;;2.8;2.2;;;;;;;14.84;95.35254;939.6108;;;;
2022/06/02 04:51:18;;;;;;;2.5;2.2;;;;;;;14.97;95.28711;939.4835;;;;
2022/06/02 04:53:45;;;;;;;2.5;2.3;;;;;;;15.03;95.05957;939.5139;;;;
2022/06/02 04:56:15;;;;;;;2.1;1.9;;;;;;;15.13;94.38867;939.4875;;;;
2022/06/02 04:58:41;;;;;;;3.1;2.4;;;;;;;15.24;94.59863;939.4319;;;;
2022/06/02 05:01:09;;;;;;;2.7;2.2;;;;;;;15.5;94.2373;939.5363;;;;
2022/06/02 05:03:35;;;;;;;1.9;1.8;;;;;;;15.66;91.61328;939.5251;;;;
2022/06/02 05:06:02;;;;;;;2;1.6;;;;;;;15.8;90.30273;939.4333;;;;
2022/06/02 05:08:27;;;;;;;1.8;1.7;;;;;;;16.04;88.87109;939.4734;;;;
2022/06/02 05:10:52;;;;;;;1.6;1.5;;;;;;;16.3;87.74414;939.5033;;;;
2022/06/02 05:13:17;;;;;;;2.2;2;;;;;;;16.42;86.26563;939.5496;;;;
2022/06/02 05:15:47;;;;;;;3;2.5;;;;;;;16.54;86.04492;939.4944;;;;
2022/06/02 05:18:17;;;;;;;2.6;2;;;;;;;16.78;85.77832;939.5428;;;;
2022/06/02 05:20:41;;;;;;;1.8;1.7;;;;;;;;;;;;;
2022/06/02 05:23:06;;;;;;;3.1;2.1;;;;;;;;;;;;;
2022/06/02 05:25:33;;;;;;;2.1;1.9;;;;;;;;;;;;;
2022/06/02 05:28:04;;;;;;;2.4;2.2;;;;;;;;;;;;;
2022/06/02 05:30:30;;;;;;;2.6;1.7;;;;;;;;;;;;;
2022/06/02 05:32:56;;;;;;;1.9;1.7;;;;;;;;;;;;;
2022/06/02 05:35:24;;;;;;;1.6;1.5;;;;;;;;;;;;;
2022/06/02 05:37:49;;;;;;;1.8;1.7;;;;;;;;;;;;;
2022/06/02 05:40:15;;;;;;;2.1;1.9;;;;;;;;;;;;;
2022/06/02 05:42:43;;;;;;;2.3;2.1;;;;;;;;;;;;;
2022/06/02 05:45:06;;;;;;;2.3;2.1;;;;;;;;;;;;;
2022/06/02 05:47:30;;;;;;;2.4;2.2;;;;;;;;;;;;;
2022/06/02 05:49:55;;;;;;;2.7;1.8;;;;;;;;;;;;;
2022/06/02 05:52:22;;;;;;;3.4;2.5;;;;;;;;;;;;;
2022/06/02 05:54:45;;;;;;;3.1;2;;;;;;;;;;;;;
2022/06/02 05:57:11;;;;;;;2;1.8;;;;;;;;;;;;;
2022/06/02 05:59:36;;;;;;;1.5;1.4;;;;;;;;;;;;;
2022/06/02 06:02:01;;;;;;;1.6;1.4;;;;;;;;;;;;;
2022/06/02 06:04:26;;;;;;;1.4;1.3;;;;;;;;;;;;;
2022/06/02 06:06:51;;;;;;;1.6;1.5;;;;;;;;;;;;;
2022/06/02 06:09:16;;;;;;;1.4;1.3;;;;;;;;;;;;;
2022/06/02 06:11:41;;;;;;;2.2;1.8;;;;;;;;;;;;;
2022/06/02 06:14:06;;;;;;;1.7;1.6;;;;;;;;;;;;;
2022/06/02 06:16:31;;;;;;;1.8;1.7;;;;;;;;;;;;;
2022/06/02 06:18:56;;;;;;;1.6;1.5;;;;;;;;;;;;;
2022/06/02 06:21:22;;;;;;;1.7;1.6;;;;;;;;;;;;;
2022/06/02 06:23:47;;;;;;;1.6;1.4;;;;;;;;;;;;;
2022/06/02 06:26:12;;;;;;;2.3;1.5;;;;;;;;;;;;;
2022/06/02 06:28:37;;;;;;;1.6;1.1;;;;;;;;;;;;;
2022/06/02 06:31:02;;;;;;;1.2;1.2;;;;;;;;;;;;;
2022/06/02 06:33:28;;;;;;;1.3;1.1;;;;;;;;;;;;;
2022/06/02 06:35:52;;;;;;;2.2;1.2;;;;;;;;;;;;;
2022/06/02 06:38:17;;;;;;;1.3;1.2;;;;;;;;;;;;;
2022/06/02 06:40:43;;;;;;;1.3;1;;;;;;;;;;;;;
2022/06/02 06:43:08;;;;;;;1;1;;;;;;;;;;;;;
2022/06/02 06:45:33;;;;;;;1.8;1.3;;;;;;;;;;;;;
2022/06/02 06:47:58;;;;;;;0.9;0.9;;;;;;;;;;;;;
2022/06/02 06:50:23;;;;;;;1.8;1.1;;;;;;;;;;;;;
2022/06/02 06:52:48;;;;;;;1.1;0.9;;;;;;;;;;;;;
2022/06/02 06:55:14;;;;;;;1.1;1;;;;;;;;;;;;;
2022/06/02 06:57:40;;;;;;;1.3;1;;;;;;;;;;;;;
2022/06/02 07:00:05;;;;;;;1;1;;;;;;;;;;;;;
2022/06/02 07:02:32;;;;;;;1;0.9;;;;;;;;;;;;;
2022/06/02 07:04:57;;;;;;;1;0.9;;;;;;;;;;;;;
2022/06/02 07:07:22;;;;;;;1.2;0.9;;;;;;;;;;;;;
2022/06/02 07:09:47;;;;;;;1.2;1;;;;;;;;;;;;;
2022/06/02 07:14:37;;;;;;;1.3;0.8;;;;;;;;;;;;;
2022/06/02 07:17:02;;;;;;;1.2;1.1;;;;;;;;;;;;;
2022/06/02 07:19:28;;;;;;;1;1;;;;;;;;;;;;;
2022/06/02 07:21:53;;;;;;;1.3;1.1;;;;;;;;;;;;;
2022/06/02 07:24:18;;;;;;;1.9;1;;;;;;;;;;;;;
2022/06/02 07:26:43;;;;;;;2;1.2;;;;;;;;;;;;;
2022/06/02 07:29:08;;;;;;;2.2;1.4;;;;;;;;;;;;;
2022/06/02 07:31:33;;;;;;;3.4;1.3;;;;;;;;;;;;;
2022/06/02 07:33:59;;;;;;;2.1;1.1;;;;;;;;;;;;;
2022/06/02 07:36:24;;;;;;;3.6;1.4;;;;;;;;;;;;;
2022/06/02 07:38:51;;;;;;;6.1;1.5;;;;;;;;;;;;;
2022/06/02 07:41:16;;;;;;;3.7;1.3;;;;;;;;;;;;;
2022/06/02 07:43:44;;;;;;;5.1;1.4;;;;;;;;;;;;;
2022/06/02 07:46:09;;;;;;;1.8;1.4;;;;;;;;;;;;;
2022/06/02 07:48:34;;;;;;;1.7;1.2;;;;;;;;;;;;;
2022/06/02 07:50:59;;;;;;;13.5;3.7;;;;;;;;;;;;;
2022/06/02 07:53:24;;;;;;;10.3;4.1;;;;;;;;;;;;;
2022/06/02 07:55:50;;;;;;;2.6;1.3;;;;;;;;;;;;;
2022/06/02 07:58:15;;;;;;;2.5;1.4;;;;;;;;;;;;;
2022/06/02 08:00:40;;;;;;;3.2;1.5;;;;;;;;;;;;;
2022/06/02 08:03:08;;;;;;;4.1;1.5;;;;;;;;;;;;;
2022/06/02 08:05:31;;;;;;;3.4;1.8;;;;;;;;;;;;;
2022/06/02 08:07:56;;;;;;;2.2;1.8;;;;;;;;;;;;;
2022/06/02 08:10:21;;;;;;;2.5;1.7;;;;;;;;;;;;;
2022/06/02 08:12:46;;;;;;;1.5;1.4;;;;;;;;;;;;;
2022/06/02 08:15:11;;;;;;;1.4;1.3;;;;;;;;;;;;;
2022/06/02 08:17:36;;;;;;;2.4;1.5;;;;;;;;;;;;;
2022/06/02 08:20:01;;;;;;;1.7;1.6;;;;;;;;;;;;;
2022/06/02 08:22:26;;;;;;;1.5;1.4;;;;;;;;;;;;;
2022/06/02 08:24:52;;;;;;;1.3;1.2;;;;;;;;;;;;;
2022/06/02 08:27:17;;;;;;;1.4;1.3;;;;;;;;;;;;;
2022/06/02 08:29:42;;;;;;;2.4;1.5;;;;;;;;;;;;;
2022/06/02 08:32:07;;;;;;;1.1;1;;;;;;;;;;;;;
2022/06/02 08:34:35;;;;;;;1;1;;;;;;;;;;;;;
2022/06/02 08:36:57;;;;;;;1.2;1.1;;;;;;;;;;;;;
2022/06/02 08:39:24;;;;;;;1.2;1;;;;;;;;;;;;;
2022/06/02 08:41:49;;;;;;;1.5;1.1;;;;;;;;;;;;;
2022/06/02 08:44:14;;;;;;;1.5;1;;;;;;;;;;;;;
2022/06/02 08:46:40;;;;;;;0.9;0.9;;;;;;;;;;;;;
2022/06/02 08:49:06;;;;;;;1.2;1;;;;;;;;;;;;;
2022/06/02 08:51:31;;;;;;;1.4;1;;;;;;;;;;;;;
2022/06/02 08:53:56;;;;;;;1.3;1.1;;;;;;;;;;;;;
2022/06/02 08:56:21;;;;;;;0.9;0.9;;;;;;;;;;;;;
2022/06/02 08:58:46;;;;;;;1;0.9;;;;;;;;;;;;;
2022/06/02 09:01:11;;;;;;;1.7;1;;;;;;;;;;;;;
2022/06/02 09:03:36;;;;;;;1.5;1.1;;;;;;;;;;;;;
2022/06/02 09:06:02;;;;;;;2.6;1.1;;;;;;;;;;;;;
2022/06/02 09:08:27;;;;;;;2.2;1;;;;;;;;;;;;;
2022/06/02 09:10:52;;;;;;;4.5;1.2;;;;;;;;;;;;;
2022/06/02 09:13:17;;;;;;;1;0.9;;;;;;;;;;;;;
2022/06/02 09:15:43;;;;;;;0.8;0.8;;;;;;;;;;;;;
2022/06/02 09:18:10;;;;;;;0.8;0.8;;;;;;;;;;;;;
2022/06/02 09:20:45;;;;;;;1.1;1;;;;;;;;;;;;;
2022/06/02 09:23:11;;;;;;;0.8;0.8;;;;;;;;;;;;;
2022/06/02 09:25:36;;;;;;;2;1.2;;;;;;;;;;;;;
2022/06/02 09:28:01;;;;;;;1.1;0.8;;;;;;;;;;;;;
2022/06/02 09:30:28;;;;;;;1.2;1;;;;;;;;;;;;;
2022/06/02 09:32:53;;;;;;;2.1;0.9;;;;;;;;;;;;;
2022/06/02 09:35:20;;;;;;;1;0.9;;;;;;;;;;;;;
2022/06/02 09:37:45;;;;;;;1.3;1.2;;;;;;;;;;;;;
2022/06/02 09:40:12;;;;;;;1.2;1.1;;;;;;;;;;;;;
2022/06/02 09:42:39;;;;;;;1.2;1.1;;;;;;;;;;;;;
2022/06/02 09:45:03;;;;;;;1.4;1.3;;;;;;;;;;;;;
2022/06/02 09:47:28;;;;;;;0.9;0.9;;;;;;;;;;;;;
2022/06/02 09:49:54;;;;;;;1.1;1.1;;;;;;;;;;;;;
2022/06/02 09:52:20;;;;;;;2;1.1;;;;;;;;;;;;;
2022/06/02 09:54:44;;;;;;;1.1;1;;;;;;;;;;;;;
2022/06/02 09:57:55;;;;;;;1.8;1.1;;;;;;;;;;;;;
2022/06/02 09:59:35;;;;;;;1;0.9;;;;;;;;;;;;;
2022/06/02 10:02:00;;;;;;;1.4;1.1;;;;;;;;;;;;;
2022/06/02 10:04:25;;;;;;;1.3;1.2;;;;;;;;;;;;;
2022/06/02 10:06:51;;;;;;;1.1;1;;;;;;;;;;;;;
2022/06/02 10:09:15;;;;;;;1;1;;;;;;;;;;;;;
2022/06/02 10:11:40;;;;;;;1.5;0.9;;;;;;;;;;;;;
2022/06/02 10:14:06;;;;;;;1.4;1;;;;;;;;;;;;;
2022/06/02 10:16:31;;;;;;;1.3;1;;;;;;;;;;;;;
2022/06/02 10:18:56;;;;;;;1.1;1;;;;;;;;;;;;;
2022/06/02 10:21:21;;;;;;;1.1;1;;;;;;;;;;;;;
2022/06/02 10:23:46;;;;;;;1;0.9;;;;;;;;;;;;;
2022/06/02 10:26:12;;;;;;;0.9;0.9;;;;;;;;;;;;;
2022/06/02 10:28:37;;;;;;;1.1;0.9;;;;;;;;;;;;;
2022/06/02 10:31:02;;;;;;;2.4;0.9;;;;;;;;;;;;;
2022/06/02 10:33:29;;;;;;;1.1;0.9;;;;;;;;;;;;;
2022/06/02 10:35:55;;;;;;;1.5;1;;;;;;;;;;;;;
2022/06/02 10:38:20;;;;;;;0.8;0.8;;;;;;;;;;;;;
2022/06/02 10:40:45;;;;;;;1;1;;;;;;;;;;;;;
2022/06/02 10:43:10;;;;;;;1.1;1;;;;;;;;;;;;;
2022/06/02 10:45:35;;;;;;;0.8;0.8;;;;;;;;;;;;;
2022/06/02 10:48:01;;;;;;;1.1;1;;;;;;;;;;;;;
2022/06/02 10:50:35;;;;;;;1;1;;;;;;;;;;;;;
2022/06/02 10:53:00;;;;;;;1.4;0.9;;;;;;;;;;;;;
2022/06/02 10:55:26;;;;;;;1.9;1;;;;;;;;;;;;;
2022/06/02 10:57:51;;;;;;;1.1;1;;;;;;;;;;;;;
2022/06/02 11:00:16;;;;;;;1.3;1.2;;;;;;;;;;;;;
2022/06/02 11:02:41;;;;;;;1.5;1;;;;;;;;;;;;;
2022/06/02 11:05:06;;;;;;;2.1;1.1;;;;;;;;;;;;;
2022/06/02 11:07:34;;;;;;;1.2;1;;;;;;;;;;;;;
2022/06/02 11:10:01;;;;;;;1;0.9;;;;;;;;;;;;;
2022/06/02 11:12:26;;;;;;;1.1;1.1;;;;;;;;;;;;;
2022/06/02 11:14:52;;;;;;;0.8;0.8;;;;;;;;;;;;;
2022/06/02 11:17:17;;;;;;;0.9;0.9;;;;;;;;;;;;;
2022/06/02 11:19:42;;;;;;;1.1;1;;;;;;;;;;;;;
2022/06/02 11:22:07;;;;;;;0.9;0.9;;;;;;;;;;;;;
2022/06/02 11:24:33;;;;;;;0.9;0.9;;;;;;;;;;;;;
2022/06/02 11:26:57;;;;;;;1.2;1.1;;;;;;;;;;;;;
2022/06/02 11:29:22;;;;;;;1.2;1.1;;;;;;;;;;;;;
2022/06/02 11:31:48;;;;;;;1.4;1.2;;;;;;;;;;;;;
2022/06/02 11:34:13;;;;;;;1.4;1.1;;;;;;;;;;;;;
2022/06/02 11:36:39;;;;;;;3.4;1.3;;;;;;;;;;;;;
2022/06/02 11:39:04;;;;;;;1.7;1.2;;;;;;;;;;;;;
2022/06/02 11:41:29;;;;;;;1.4;1.2;;;;;;;;;;;;;
2022/06/02 11:43:54;;;;;;;1.8;1.3;;;;;;;;;;;;;
2022/06/02 11:46:19;;;;;;;1.7;1.3;;;;;;;;;;;;;
2022/06/02 11:48:45;;;;;;;1.2;1.1;;;;;;;;;;;;;
2022/06/02 11:51:10;;;;;;;2.5;1.2;;;;;;;;;;;;;
2022/06/02 11:53:35;;;;;;;1.6;1.5;;;;;;;;;;;;;
2022/06/02 11:56:00;;;;;;;1.6;1.4;;;;;;;;;;;;;
2022/06/02 11:58:26;;;;;;;1.5;1.1;;;;;;;;;;;;;
2022/06/02 12:00:51;;;;;;;1.3;1.2;;;;;;;;;;;;;
2022/06/02 12:03:18;;;;;;;2.1;1.3;;;;;;;;;;;;;
2022/06/02 12:05:45;;;;;;;2.5;1.4;;;;;;;;;;;;;
2022/06/02 12:08:10;;;;;;;1.5;1.1;;;;;;;;;;;;;
2022/06/02 12:10:36;;;;;;;1.4;1.3;;;;;;;;;;;;;
2022/06/02 12:13:01;;;;;;;2;1.2;;;;;;;;;;;;;
2022/06/02 12:15:26;;;;;;;2.2;1.1;;;;;;;;;;;;;
2022/06/02 12:17:51;;;;;;;1;1;;;;;;;;;;;;;
2022/06/02 12:20:17;;;;;;;1.9;1.1;;;;;;;;;;;;;
2022/06/02 12:22:42;;;;;;;1.9;1.3;;;;;;;;;;;;;
2022/06/02 12:25:10;;;;;;;1.7;1.2;;;;;;;;;;;;;
2022/06/02 12:27:36;;;;;;;1.2;1;;;;;;;;;;;;;
2022/06/02 12:30:02;;;;;;;1.7;1.2;;;;;;;;;;;;;
2022/06/02 12:32:28;;;;;;;1;0.9;;;;;;;;;;;;;
2022/06/02 12:34:52;;;;;;;0.9;0.9;;;;;;;;;;;;;
2022/06/02 12:37:17;;;;;;;1;1;;;;;;;;;;;;;
2022/06/02 12:39:42;;;;;;;1.9;1.3;;;;;;;;;;;;;
2022/06/02 12:42:08;;;;;;;1.7;0.9;;;;;;;;;;;;;
2022/06/02 12:44:33;;;;;;;1.7;1.1;;;;;;;;;;;;;
2022/06/02 12:46:58;;;;;;;1.4;1.3;;;;;;;;;;;;;
2022/06/02 12:49:23;;;;;;;1.7;1.2;;;;;;;;;;;;;
2022/06/02 12:51:48;;;;;;;1.2;1.1;;;;;;;;;;;;;
2022/06/02 12:54:15;;;;;;;1.3;1;;;;;;;;;;;;;
2022/06/02 12:56:40;;;;;;;2.2;1.7;;;;;;;;;;;;;
2022/06/02 12:59:05;;;;;;;1.3;1.2;;;;;;;;;;;;;
2022/06/02 13:01:31;;;;;;;1.7;1.1;;;;;;;;;;;;;
2022/06/02 13:03:56;;;;;;;1;1;;;;;;;;;;;;;
2022/06/02 13:06:21;;;;;;;1.1;1;;;;;;;;;;;;;
2022/06/02 13:08:47;;;;;;;1.3;1.1;;;;;;;;;;;;;
2022/06/02 13:11:12;;;;;;;1.8;0.9;;;;;;;;;;;;;
2022/06/02 13:13:37;;;;;;;1.3;0.9;;;;;;;;;;;;;
2022/06/02 13:16:06;;;;;;;1.3;1.1;;;;;;;;;;;;;
2022/06/02 13:18:30;;;;;;;0.9;0.9;;;;;;;;;;;;;
2022/06/02 13:20:57;;;;;;;2.1;1;;;;;;;;;;;;;
2022/06/02 13:23:23;;;;;;;1.1;1;;;;;;;;;;;;;
2022/06/02 13:25:48;;;;;;;3.2;1.2;;;;;;;;;;;;;
2022/06/02 13:28:13;;;;;;;1.2;1.1;;;;;;;;;;;;;
2022/06/02 13:30:38;;;;;;;2.7;1.2;;;;;;;;;;;;;
2022/06/02 13:33:03;;;;;;;1.4;1.2;;;;;;;;;;;;;
2022/06/02 13:35:28;;;;;;;1.1;1.1;;;;;;;;;;;;;
2022/06/02 13:37:53;;;;;;;1.1;1.1;;;;;;;;;;;;;
2022/06/02 13:40:18;;;;;;;2;1.2;;;;;;;;;;;;;
2022/06/02 13:42:44;;;;;;;1.1;1;;;;;;;;;;;;;
2022/06/02 13:45:08;;;;;;;1.6;1.1;;;;;;;;;;;;;
2022/06/02 13:47:33;;;;;;;2.7;1.2;;;;;;;;;;;;;
2022/06/02 13:49:59;;;;;;;1.4;1;;;;;;;;;;;;;
2022/06/02 13:52:24;;;;;;;2;1.2;;;;;;;;;;;;;
2022/06/02 13:57:41;;;;;;;1.7;1.3;;;;;;;;;;;;;
2022/06/02 13:59:41;;;;;;;3.3;1.2;;;;;;;;;;;;;
2022/06/02 14:02:07;;;;;;;2;1.3;;;;;;;;;;;;;
2022/06/02 14:04:32;;;;;;;1.4;1.3;;;;;;;;;;;;;
2022/06/02 14:06:58;;;;;;;2;1.3;;;;;;;;;;;;;
2022/06/02 14:09:23;;;;;;;1.4;1.3;;;;;;;;;;;;;
2022/06/02 14:11:48;;;;;;;2.4;1.4;;;;;;;;;;;;;
2022/06/02 14:14:14;;;;;;;2.9;1.5;;;;;;;;;;;;;
2022/06/02 14:16:39;;;;;;;1.5;1.4;;;;;;;;;;;;;
2022/06/02 14:19:04;;;;;;;1.6;1.3;;;;;;;;;;;;;
2022/06/02 14:21:29;;;;;;;1.4;1.3;;;;;;;;;;;;;
2022/06/02 14:23:54;;;;;;;2.2;1.2;;;;;;;;;;;;;
2022/06/02 14:26:20;;;;;;;1.3;1.2;;;;;;;;;;;;;
2022/06/02 14:28:46;;;;;;;1.6;1.3;;;;;;;;;;;;;
2022/06/02 14:31:11;;;;;;;1.6;1.2;;;;;;;;;;;;;
2022/06/02 14:33:36;;;;;;;2;1.3;;;;;;;;;;;;;
2022/06/02 14:36:02;;;;;;;1.2;1.1;;;;;;;;;;;;;
2022/06/02 14:38:29;;;;;;;2.2;1.4;;;;;;;;;;;;;
2022/06/02 14:40:54;;;;;;;3.2;1.5;;;;;;;;;;;;;
2022/06/02 14:43:19;;;;;;;1.4;1.3;;;;;;;;;;;;;
2022/06/02 14:45:44;;;;;;;1.8;1.4;;;;;;;;;;;;;
2022/06/02 14:48:09;;;;;;;1.6;1.4;;;;;;;;;;;;;
2022/06/02 14:50:35;;;;;;;1.4;1.3;;;;;;;;;;;;;
2022/06/02 14:53:01;;;;;;;2.2;1.2;;;;;;;;;;;;;
2022/06/02 14:55:25;;;;;;;1.6;1.5;;;;;;;;;;;;;
2022/06/02 14:57:53;;;;;;;1.5;1.4;;;;;;;;;;;;;
2022/06/02 15:00:18;;;;;;;3;1.3;;;;;;;;;;;;;
2022/06/02 15:02:44;;;;;;;2.4;1.4;;;;;;;;;;;;;
2022/06/02 15:05:15;;;;;;;3;1.6;;;;;;;;;;;;;
2022/06/02 15:07:44;;;;;;;2.9;1.5;;;;;;;;;;;;;
2022/06/02 15:10:14;;;;;;;1.9;1.4;;;;;;;;;;;;;
2022/06/02 15:12:39;;;;;;;2.9;1.4;;;;;;;;;;;;;
2022/06/02 15:15:05;;;;;;;1.6;1.5;;;;;;;;;;;;;
2022/06/02 15:17:31;;;;;;;1.4;1.3;;;;;;;;;;;;;
2022/06/02 15:19:56;;;;;;;1.7;1.4;;;;;;;;;;;;;
2022/06/02 15:22:21;;;;;;;1.6;1.4;;;;;;;;;;;;;
2022/06/02 15:24:48;;;;;;;1.4;1.3;;;;;;;;;;;;;
2022/06/02 15:27:13;;;;;;;1.5;1.4;;;;;;;;;;;;;
2022/06/02 15:29:38;;;;;;;1.6;1.3;;;;;;;;;;;;;
2022/06/02 15:32:04;;;;;;;2.4;1.6;;;;;;;;;;;;;
2022/06/02 15:34:28;;;;;;;1.7;1.4;;;;;;;;;;;;;
2022/06/02 15:36:54;;;;;;;1.8;1.5;;;;;;;;;;;;;
2022/06/02 15:39:19;;;;;;;1.3;1.3;;;;;;;;;;;;;
2022/06/02 15:41:44;;;;;;;2.8;1.3;;;;;;;;;;;;;
2022/06/02 15:44:09;;;;;;;1.8;1.4;;;;;;;;;;;;;
2022/06/02 15:46:35;;;;;;;1.7;1.4;;;;;;;;;;;;;
2022/06/02 15:49:01;;;;;;;2.6;1.6;;;;;;;;;;;;;
2022/06/02 15:51:26;;;;;;;1.7;1.5;;;;;;;;;;;;;
2022/06/02 15:53:51;;;;;;;4.4;1.6;;;;;;;;;;;;;
2022/06/02 15:56:17;;;;;;;1.5;1.4;;;;;;;;;;;;;
2022/06/02 15:58:41;;;;;;;1.6;1.5;;;;;;;;;;;;;
2022/06/02 16:01:08;;;;;;;2.7;1.7;;;;;;;;;;;;;
2022/06/02 16:03:32;;;;;;;1.6;1.5;;;;;;;;;;;;;
2022/06/02 16:05:57;;;;;;;2.6;1.7;;;;;;;;;;;;;
2022/06/02 16:08:22;;;;;;;1.6;1.5;;;;;;;;;;;;;
2022/06/02 16:13:13;;;;;;;2.4;1.4;;;;;;;;;;;;;
2022/06/02 16:15:40;;;;;;;2.3;1.7;;;;;;;;;;;;;
2022/06/02 16:18:07;;;;;;;2.1;1.4;;;;;;;;;;;;;
2022/06/02 16:20:30;;;;;;;3;1.8;;;;;;;;;;;;;
2022/06/02 16:22:56;;;;;;;2;1.6;;;;;;;;;;;;;
2022/06/02 16:25:21;;;;;;;2.1;1.6;;;;;;;;;;;;;
2022/06/02 16:27:56;;;;;;;2;1.5;;;;;;;;;;;;;
2022/06/02 16:30:11;;;;;;;3.7;1.5;;;;;;;;;;;;;
2022/06/02 16:32:37;;;;;;;1.9;1.6;;;;;;;;;;;;;
2022/06/02 16:35:02;;;;;;;2.4;1.9;;;;;;;;;;;;;
2022/06/02 16:37:27;;;;;;;2;1.6;;;;;;;;;;;;;
2022/06/02 16:39:52;;;;;;;2.9;1.5;;;;;;;;;;;;;
2022/06/02 16:42:17;;;;;;;2;1.7;;;;;;;;;;;;;
2022/06/02 16:44:44;;;;;;;2.1;1.9;;;;;;;;;;;;;
2022/06/02 16:47:07;;;;;;;2.4;1.7;;;;;;;;;;;;;
2022/06/02 16:49:32;;;;;;;2.4;1.7;;;;;;;;;;;;;
2022/06/02 16:51:58;;;;;;;1.9;1.7;;;;;;;;;;;;;
2022/06/02 16:54:23;;;;;;;2.4;1.7;;;;;;;;;;;;;
2022/06/02 16:56:48;;;;;;;1.9;1.6;;;;;;;;;;;;;
2022/06/02 16:59:13;;;;;;;3.5;1.9;;;;;;;;;;;;;
2022/06/02 17:01:38;;;;;;;2.4;1.6;;;;;;;;;;;;;
2022/06/02 17:04:18;;;;;;;2.5;1.9;;;;;;;;;;;;;
2022/06/02 17:06:44;;;;;;;2;1.7;;;;;;;;;;;;;
2022/06/02 17:09:08;;;;;;;3;2;;;;;;;;;;;;;
2022/06/02 17:11:35;;;;;;;2.8;1.8;;;;;;;;;;;;;
2022/06/02 17:13:59;;;;;;;2.6;1.8;;;;;;;;;;;;;
2022/06/02 17:16:24;;;;;;;3.5;1.8;;;;;;;;;;;;;
2022/06/02 17:18:49;;;;;;;2;1.8;;;;;;;;;;;;;
2022/06/02 17:21:14;;;;;;;1.8;1.7;;;;;;;;;;;;;
2022/06/02 17:23:40;;;;;;;2.4;1.9;;;;;;;;;;;;;
2022/06/02 17:26:05;;;;;;;2.2;1.8;;;;;;;;;;;;;
2022/06/02 17:28:30;;;;;;;1.7;1.6;;;;;;;;;;;;;
2022/06/02 17:30:55;;;;;;;1.8;1.7;;;;;;;;;;;;;
2022/06/02 17:33:21;;;;;;;1.8;1.6;;;;;;;;;;;;;
2022/06/02 17:35:47;;;;;;;3;1.9;;;;;;;;;;;;;
2022/06/02 17:38:11;;;;;;;4.4;1.9;;;;;;;;;;;;;
2022/06/02 17:40:36;;;;;;;2.1;1.9;;;;;;;;;;;;;
2022/06/02 17:43:35;;;;;;;2.5;1.8;;;;;;;;;;;;;
2022/06/02 17:45:45;;;;;;;2.2;2;;;;;;;;;;;;;
2022/06/02 17:48:11;;;;;;;2.7;1.9;;;;;;;;;;;;;
2022/06/02 17:50:35;;;;;;;2.2;1.9;;;;;;;;;;;;;
2022/06/02 17:53:01;;;;;;;3.1;1.9;;;;;;;;;;;;;
2022/06/02 17:55:26;;;;;;;2.1;1.9;;;;;;;;;;;;;
2022/06/02 17:57:52;;;;;;;3;2;;;;;;;;;;;;;
2022/06/02 18:00:18;;;;;;;2.8;2;;;;;;;;;;;;;
2022/06/02 18:02:44;;;;;;;2.2;2;;;;;;;;;;;;;
2022/06/02 18:05:14;;;;;;;3.1;2;;;;;;;;;;;;;
2022/06/02 18:07:39;;;;;;;2.2;1.9;;;;;;;;;;;;;
2022/06/02 18:10:04;;;;;;;4.2;3;;;;;;;;;;;;;
2022/06/02 18:12:28;;;;;;;6.5;4.6;;;;;;;;;;;;;
2022/06/02 18:14:54;;;;;;;8.6;5.6;;;;;;;;;;;;;
2022/06/02 18:17:19;;;;;;;4.6;3.3;;;;;;;;;;;;;
2022/06/02 18:19:44;;;;;;;3.1;2.7;;;;;;;;;;;;;
2022/06/02 18:22:09;;;;;;;2.5;1.8;;;;;;;;;;;;;
2022/06/02 18:24:35;;;;;;;2.7;2.1;;;;;;;;;;;;;
2022/06/02 18:27:01;;;;;;;5.9;2.4;;;;;;;;;;;;;
2022/06/02 18:29:26;;;;;;;7.6;2.8;;;;;;;;;;;;;
2022/06/02 18:31:53;;;;;;;2.4;2.2;;;;;;;;;;;;;
2022/06/02 18:34:17;;;;;;;3.4;2.5;;;;;;;;;;;;;
2022/06/02 18:36:42;;;;;;;3.3;2.3;;;;;;;;;;;;;
2022/06/02 18:39:07;;;;;;;3.3;2.4;;;;;;;;;;;;;
2022/06/02 18:41:32;;;;;;;3.2;2.5;;;;;;;;;;;;;
2022/06/02 18:43:58;;;;;;;4.1;2.4;;;;;;;;;;;;;
2022/06/02 18:46:23;;;;;;;2.4;2.2;;;;;;;;;;;;;
2022/06/02 18:48:48;;;;;;;3.6;2.7;;;;;;;;;;;;;